createdAt,value
2023-03-15T00:03:15.631Z,29.65
2023-03-15T00:06:37.558Z,29.66
2023-03-15T00:09:59.445Z,29.65
2023-03-15T00:13:21.397Z,29.64
2023-03-15T00:16:43.184Z,29.64
2023-03-15T00:20:06.641Z,29.64
2023-03-15T00:23:28.484Z,29.61
2023-03-15T00:26:52.860Z,29.60
2023-03-15T00:30:14.729Z,29.59
2023-03-15T00:33:36.470Z,29.60
2023-03-15T00:36:58.150Z,29.59
2023-03-15T00:40:19.962Z,29.59
2023-03-15T00:43:42.359Z,29.61
2023-03-15T00:47:04.067Z,29.61
2023-03-15T00:50:26.284Z,29.58
2023-03-15T00:53:49.605Z,29.49
2023-03-15T00:57:11.368Z,29.40
2023-03-15T01:00:33.096Z,29.33
2023-03-15T01:03:55.408Z,29.26
2023-03-15T01:07:19.072Z,29.21
2023-03-15T01:10:40.799Z,29.17
2023-03-15T01:14:05.116Z,29.13
2023-03-15T01:17:26.908Z,29.09
2023-03-15T01:20:48.641Z,29.05
2023-03-15T01:24:15.127Z,29.02
2023-03-15T01:27:36.879Z,28.97
2023-03-15T01:31:00.101Z,28.96
2023-03-15T01:34:22.119Z,28.95
2023-03-15T01:37:43.812Z,28.94
2023-03-15T01:41:05.852Z,28.90
2023-03-15T01:44:54.272Z,28.89
2023-03-15T01:48:16.330Z,28.86
2023-03-15T01:51:49.609Z,28.83
2023-03-15T01:55:17.262Z,28.81
2023-03-15T01:58:53.038Z,28.79
2023-03-15T02:02:15.397Z,28.77
2023-03-15T02:05:46.150Z,28.74
2023-03-15T02:09:14.922Z,28.73
2023-03-15T02:12:45.501Z,28.71
2023-03-15T02:16:07.908Z,28.69
2023-03-15T02:19:44.327Z,28.68
2023-03-15T02:23:09.110Z,28.64
2023-03-15T02:26:44.590Z,28.64
2023-03-15T02:30:07.865Z,28.60
2023-03-15T02:33:33.396Z,28.56
2023-03-15T02:36:55.775Z,28.54
2023-03-15T02:40:22.317Z,28.48
2023-03-15T02:43:44.268Z,28.43
2023-03-15T02:47:10.560Z,28.40
2023-03-15T02:50:32.863Z,28.35
2023-03-15T02:53:54.910Z,28.34
2023-03-15T02:57:19.621Z,28.30
2023-03-15T03:00:41.916Z,28.30
2023-03-15T03:04:03.810Z,28.27
2023-03-15T03:07:25.619Z,28.23
2023-03-15T03:10:52.311Z,28.18
2023-03-15T03:14:14.244Z,28.18
2023-03-15T03:17:37.549Z,28.21
2023-03-15T03:20:59.833Z,28.20
2023-03-15T03:24:21.917Z,28.19
2023-03-15T03:27:44.090Z,28.17
2023-03-15T03:31:06.834Z,28.12
2023-03-15T03:34:29.239Z,28.07
2023-03-15T03:37:53.924Z,28.10
2023-03-15T03:41:21.142Z,28.11
2023-03-15T03:44:43.050Z,28.11
2023-03-15T03:48:05.207Z,28.10
2023-03-15T03:51:27.740Z,28.07
2023-03-15T03:54:49.500Z,28.05
2023-03-15T03:58:11.193Z,28.04
2023-03-15T04:01:42.190Z,27.99
2023-03-15T04:05:05.944Z,27.95
2023-03-15T04:08:28.133Z,27.93
2023-03-15T04:11:50.866Z,27.90
2023-03-15T04:15:12.853Z,27.90
2023-03-15T04:18:34.886Z,27.88
2023-03-15T04:21:57.372Z,27.88
2023-03-15T04:25:58.148Z,27.86
2023-03-15T04:29:46.131Z,27.85
2023-03-15T04:33:29.021Z,27.84
2023-03-15T04:37:23.148Z,27.80
2023-03-15T04:41:11.194Z,27.77
2023-03-15T04:44:58.774Z,27.75
2023-03-15T04:48:52.943Z,27.73
2023-03-15T04:52:40.479Z,27.71
2023-03-15T04:56:20.969Z,27.68
2023-03-15T05:00:15.482Z,27.66
2023-03-15T05:04:03.258Z,27.62
2023-03-15T05:07:50.465Z,27.60
2023-03-15T05:11:47.574Z,27.57
2023-03-15T05:15:29.136Z,27.55
2023-03-15T05:19:29.200Z,27.52
2023-03-15T05:23:10.874Z,27.52
2023-03-15T05:26:58.881Z,27.47
2023-03-15T05:30:56.153Z,27.45
2023-03-15T05:34:40.895Z,27.43
2023-03-15T05:38:19.790Z,27.42
2023-03-15T05:41:59.908Z,27.41
2023-03-15T05:45:48.787Z,27.40
2023-03-15T05:49:27.178Z,27.39
2023-03-15T05:53:00.896Z,27.38
2023-03-15T05:56:31.171Z,27.35
2023-03-15T06:00:16.439Z,27.33
2023-03-15T06:03:38.154Z,27.31
2023-03-15T06:07:05.608Z,27.25
2023-03-15T06:10:27.913Z,27.21
2023-03-15T06:13:50.389Z,27.17
2023-03-15T06:17:25.448Z,27.12
2023-03-15T06:20:47.240Z,27.05
2023-03-15T06:24:09.209Z,27.01
2023-03-15T06:27:31.302Z,26.96
2023-03-15T06:30:53.583Z,26.94
2023-03-15T06:34:18.862Z,26.92
2023-03-15T06:37:42.011Z,26.91
2023-03-15T06:41:05.375Z,26.87
2023-03-15T06:44:29.390Z,26.83
2023-03-15T06:47:54.662Z,26.79
2023-03-15T06:51:18.694Z,26.75
2023-03-15T06:54:40.403Z,26.72
2023-03-15T06:58:05.268Z,26.70
2023-03-15T07:01:27.086Z,26.65
2023-03-15T07:04:49.663Z,26.60
2023-03-15T07:08:11.362Z,26.54
2023-03-15T07:11:33.543Z,26.49
2023-03-15T07:14:55.206Z,26.43
2023-03-15T07:18:16.876Z,26.40
2023-03-15T07:21:39.086Z,26.35
2023-03-15T07:25:00.851Z,26.31
2023-03-15T07:28:24.174Z,26.29
2023-03-15T07:31:45.891Z,26.26
2023-03-15T07:35:08.051Z,26.17
2023-03-15T07:38:29.969Z,26.10
2023-03-15T07:41:54.445Z,26.09
2023-03-15T07:45:27.249Z,26.05
2023-03-15T07:48:49.009Z,26.00
2023-03-15T07:52:12.824Z,25.94
2023-03-15T07:55:35.374Z,25.88
2023-03-15T07:58:59.253Z,25.87
2023-03-15T08:02:21.072Z,25.81
2023-03-15T08:05:42.784Z,25.78
2023-03-15T08:09:06.095Z,25.70
2023-03-15T08:12:27.801Z,25.59
2023-03-15T08:15:49.613Z,25.28
2023-03-15T08:19:11.454Z,24.68
2023-03-15T08:22:33.196Z,23.95
2023-03-15T08:25:54.982Z,23.02
2023-03-15T08:29:16.879Z,22.07
2023-03-15T08:32:40.442Z,21.31
2023-03-15T08:36:02.292Z,20.72
2023-03-15T08:39:24.252Z,20.48
2023-03-15T08:42:46.239Z,20.55
2023-03-15T08:46:08.201Z,20.76
2023-03-15T08:49:30.011Z,21.02
2023-03-15T08:52:51.982Z,21.25
2023-03-15T08:56:13.727Z,21.44
2023-03-15T08:59:35.429Z,21.50
2023-03-15T09:02:57.129Z,21.58
2023-03-15T09:06:18.900Z,21.72
2023-03-15T09:09:40.797Z,21.84
2023-03-15T09:13:02.912Z,21.82
2023-03-15T09:16:24.913Z,21.80
2023-03-15T09:19:46.867Z,21.74
2023-03-15T09:23:08.592Z,21.68
2023-03-15T09:26:30.908Z,21.68
2023-03-15T09:29:53.708Z,21.68
2023-03-15T09:33:15.451Z,21.72
2023-03-15T09:36:37.508Z,21.70
2023-03-15T09:39:59.441Z,21.61
2023-03-15T09:43:47.312Z,21.36
2023-03-15T09:48:01.045Z,21.09
2023-03-15T09:52:10.931Z,20.83
2023-03-15T09:55:33.278Z,20.74
2023-03-15T09:58:58.983Z,20.60
2023-03-15T10:02:30.964Z,20.36
2023-03-15T10:05:57.186Z,20.20
2023-03-15T10:09:22.799Z,19.89
2023-03-15T10:12:47.336Z,19.27
2023-03-15T10:16:18.951Z,18.78
2023-03-15T10:19:55.313Z,18.33
2023-03-15T10:23:20.996Z,18.00
2023-03-15T10:30:31.293Z,17.66
2023-03-15T10:33:56.751Z,17.80
2023-03-15T10:37:19.601Z,18.02
2023-03-15T10:40:46.982Z,18.07
2023-03-15T10:44:35.264Z,18.05
2023-03-15T10:48:00.574Z,17.95
2023-03-15T10:51:38.310Z,17.99
2023-03-15T10:55:04.667Z,18.16
2023-03-15T10:58:31.462Z,18.42
2023-03-15T11:01:56.075Z,18.73
2023-03-15T11:05:19.015Z,19.04
2023-03-15T11:08:42.041Z,19.23
2023-03-15T11:12:06.465Z,19.47
2023-03-15T11:15:32.501Z,19.75
2023-03-15T11:19:04.026Z,19.94
2023-03-15T11:22:26.517Z,20.04
2023-03-15T11:25:48.282Z,20.04
2023-03-15T11:29:34.344Z,20.01
2023-03-15T11:32:59.114Z,19.90
2023-03-15T11:36:23.682Z,19.94
2023-03-15T11:40:11.845Z,20.04
2023-03-15T11:43:45.190Z,19.89
2023-03-15T11:47:25.258Z,19.51
2023-03-15T11:50:47.017Z,18.84
2023-03-15T11:54:08.742Z,18.32
2023-03-15T11:57:40.760Z,17.95
2023-03-15T12:01:04.767Z,17.59
2023-03-15T12:04:32.098Z,17.40
2023-03-15T12:08:02.045Z,17.08
2023-03-15T12:11:23.771Z,16.97
2023-03-15T12:14:45.708Z,16.79
2023-03-15T12:18:15.253Z,16.64
2023-03-15T12:21:44.016Z,16.73
2023-03-15T12:25:14.444Z,16.62
2023-03-15T12:28:36.529Z,16.50
2023-03-15T12:32:00.200Z,16.49
2023-03-15T12:35:23.804Z,16.50
2023-03-15T12:39:01.877Z,16.51
2023-03-15T12:42:30.838Z,16.52
2023-03-15T12:45:53.028Z,16.63
2023-03-15T12:49:23.989Z,16.69
2023-03-15T12:52:47.473Z,16.75
2023-03-15T12:56:18.407Z,16.79
2023-03-15T12:59:47.212Z,16.88
2023-03-15T13:03:12.461Z,16.96
2023-03-15T13:06:46.328Z,16.90
2023-03-15T13:10:18.854Z,16.88
2023-03-15T13:14:11.921Z,16.88
2023-03-15T13:17:50.676Z,16.91
2023-03-15T13:21:31.073Z,16.94
2023-03-15T13:25:09.855Z,16.95
2023-03-15T13:28:47.757Z,16.92
2023-03-15T13:32:13.879Z,16.91
2023-03-15T13:36:04.737Z,16.98
2023-03-15T13:39:27.494Z,17.11
2023-03-15T13:42:49.630Z,17.23
2023-03-15T13:46:11.742Z,17.25
2023-03-15T13:49:34.542Z,17.22
2023-03-15T13:52:56.550Z,17.18
2023-03-15T13:56:22.647Z,17.15
2023-03-15T13:59:47.942Z,17.17
2023-03-15T14:03:15.358Z,17.19
2023-03-15T14:06:37.466Z,17.22
2023-03-15T14:10:27.465Z,17.28
2023-03-15T14:13:53.242Z,17.35
2023-03-15T14:17:29.956Z,17.37
2023-03-15T14:21:07.550Z,17.46
2023-03-15T14:24:39.362Z,17.60
2023-03-15T14:28:02.505Z,17.68
2023-03-15T14:31:27.432Z,17.77
2023-03-15T14:34:49.623Z,17.87
2023-03-15T14:38:25.962Z,17.97
2023-03-15T14:41:47.640Z,18.05
2023-03-15T14:45:09.667Z,18.20
2023-03-15T14:48:34.600Z,18.31
2023-03-15T14:52:01.083Z,18.37
2023-03-15T14:55:25.081Z,18.48
2023-03-15T14:58:46.934Z,18.55
2023-03-15T15:02:15.270Z,18.63
2023-03-15T15:05:37.387Z,18.74
2023-03-15T15:09:00.282Z,18.81
2023-03-15T15:12:22.027Z,18.87
2023-03-15T15:15:55.128Z,18.94
2023-03-15T15:19:17.461Z,19.06
2023-03-15T15:22:45.423Z,19.13
2023-03-15T15:26:15.121Z,19.19
2023-03-15T15:29:36.892Z,19.30
2023-03-15T15:32:58.670Z,19.46
2023-03-15T15:36:46.580Z,19.59
2023-03-15T15:40:16.063Z,19.70
2023-03-15T15:43:37.799Z,19.82
2023-03-15T15:47:01.145Z,20.01
2023-03-15T15:50:23.134Z,20.08
2023-03-15T15:53:45.158Z,20.09
2023-03-15T15:57:07.406Z,20.09
2023-03-15T16:00:30.228Z,20.10
2023-03-15T16:03:52.658Z,20.10
2023-03-15T16:07:16.128Z,20.12
2023-03-15T16:10:37.983Z,20.13
2023-03-15T16:14:00.148Z,20.14
2023-03-15T16:17:26.570Z,20.19
2023-03-15T16:20:50.368Z,20.22
2023-03-15T16:24:25.481Z,20.27
2023-03-15T16:27:47.274Z,20.31
2023-03-15T16:31:09.053Z,20.36
2023-03-15T16:34:34.458Z,20.38
2023-03-15T16:37:59.219Z,20.41
2023-03-15T16:41:20.926Z,20.45
2023-03-15T16:44:43.072Z,20.50
2023-03-15T16:48:05.057Z,20.52
2023-03-15T16:51:27.613Z,20.55
2023-03-15T16:54:49.451Z,20.61
2023-03-15T16:58:20.546Z,20.64
2023-03-15T17:01:43.448Z,20.69
2023-03-15T17:05:06.552Z,20.75
2023-03-15T17:08:28.968Z,20.79
2023-03-15T17:11:52.535Z,20.82
2023-03-15T17:15:14.873Z,20.85
2023-03-15T17:18:36.772Z,20.89
2023-03-15T17:21:59.292Z,20.96
2023-03-15T17:25:21.055Z,20.99
2023-03-15T17:28:43.686Z,21.03
2023-03-15T17:32:11.176Z,21.08
2023-03-15T17:35:39.021Z,21.11
2023-03-15T17:39:04.141Z,21.16
2023-03-15T17:42:26.071Z,21.20
2023-03-15T17:45:48.193Z,21.24
2023-03-15T17:49:15.057Z,21.27
2023-03-15T17:52:37.306Z,21.31
2023-03-15T17:55:59.082Z,21.35
2023-03-15T17:59:21.104Z,21.41
2023-03-15T18:02:49.849Z,21.45
2023-03-15T18:06:21.251Z,21.45
2023-03-15T18:09:43.218Z,21.48
2023-03-15T18:13:05.569Z,21.49
2023-03-15T18:16:27.597Z,21.52
2023-03-15T18:23:25.360Z,21.56
2023-03-15T18:26:47.219Z,21.60
2023-03-15T18:30:11.988Z,21.65
2023-03-15T18:33:34.120Z,21.65
2023-03-15T18:36:56.013Z,21.68
2023-03-15T18:40:19.405Z,21.73
2023-03-15T18:43:43.920Z,21.74
2023-03-15T18:47:08.018Z,21.76
2023-03-15T18:50:31.348Z,21.78
2023-03-15T18:53:53.462Z,21.79
2023-03-15T18:57:15.369Z,21.83
2023-03-15T19:00:37.864Z,21.87
2023-03-15T19:04:01.584Z,21.88
2023-03-15T19:07:23.339Z,21.88
2023-03-15T19:10:47.067Z,21.88
2023-03-15T19:14:14.416Z,21.89
2023-03-15T19:17:36.792Z,21.91
2023-03-15T19:20:58.982Z,21.92
2023-03-15T19:24:23.895Z,21.93
2023-03-15T19:27:45.712Z,21.92
2023-03-15T19:31:09.119Z,21.92
2023-03-15T19:34:31.760Z,21.97
2023-03-15T19:37:53.970Z,22.00
2023-03-15T19:41:17.892Z,22.04
2023-03-15T19:44:39.741Z,22.06
2023-03-15T19:48:01.602Z,22.08
2023-03-15T19:51:23.637Z,22.10
2023-03-15T19:54:47.157Z,22.10
2023-03-15T19:58:09.075Z,22.13
2023-03-15T20:01:32.636Z,22.13
2023-03-15T20:04:54.420Z,22.14
2023-03-15T20:08:16.230Z,22.17
2023-03-15T20:11:38.031Z,22.19
2023-03-15T20:15:02.170Z,22.18
2023-03-15T20:18:24.120Z,22.19
2023-03-15T20:21:48.271Z,22.19
2023-03-15T20:25:13.583Z,22.20
2023-03-15T20:28:35.526Z,22.21
2023-03-15T20:31:57.734Z,22.23
2023-03-15T20:35:19.572Z,22.22
2023-03-15T20:38:45.361Z,22.24
2023-03-15T20:42:07.207Z,22.25
2023-03-15T20:45:51.433Z,22.28
2023-03-15T20:49:48.119Z,22.25
2023-03-15T20:53:09.888Z,22.25
2023-03-15T20:56:33.651Z,22.27
2023-03-15T20:59:55.753Z,22.27
2023-03-15T21:03:19.352Z,22.29
2023-03-15T21:06:41.056Z,22.31
2023-03-15T21:10:04.237Z,22.33
2023-03-15T21:13:26.476Z,22.34
2023-03-15T21:16:48.145Z,22.34
2023-03-15T21:20:12.663Z,22.37
2023-03-15T21:24:08.032Z,22.39
2023-03-15T21:27:47.949Z,22.40
2023-03-15T21:31:26.565Z,22.42
2023-03-15T21:34:57.227Z,22.42
2023-03-15T21:38:22.094Z,22.42
2023-03-15T21:41:48.409Z,22.43
2023-03-15T21:45:14.956Z,22.41
2023-03-15T21:48:39.877Z,22.41
2023-03-15T21:52:03.039Z,22.42
2023-03-15T21:55:45.825Z,22.45
2023-03-15T21:59:10.928Z,22.45
2023-03-15T22:06:08.579Z,22.47
2023-03-15T22:09:32.838Z,22.48
2023-03-15T22:12:54.670Z,22.47
2023-03-15T22:16:17.734Z,22.48
2023-03-15T22:19:43.121Z,22.48
2023-03-15T22:23:05.586Z,22.48
2023-03-15T22:26:41.919Z,22.48
2023-03-15T22:30:05.699Z,22.47
2023-03-15T22:33:27.568Z,22.50
2023-03-15T22:36:49.252Z,22.50
2023-03-15T22:40:14.182Z,22.51
2023-03-15T22:43:37.160Z,22.51
2023-03-15T22:46:58.870Z,22.53
2023-03-15T22:50:21.505Z,22.52
2023-03-15T22:53:43.296Z,22.52
2023-03-15T22:57:06.309Z,22.52
2023-03-15T23:00:28.237Z,22.51
2023-03-15T23:03:50.158Z,22.52
2023-03-15T23:07:21.552Z,22.54
2023-03-15T23:10:43.360Z,22.54
2023-03-15T23:14:28.277Z,22.54
2023-03-15T23:19:09.483Z,22.56
2023-03-15T23:23:08.187Z,22.58
2023-03-15T23:26:29.992Z,22.59
2023-03-15T23:29:55.439Z,22.61
2023-03-15T23:33:18.095Z,22.60
2023-03-15T23:36:47.234Z,22.60
2023-03-15T23:40:26.929Z,22.58
2023-03-15T23:43:48.957Z,22.58
2023-03-15T23:47:12.371Z,22.59
2023-03-15T23:50:34.136Z,22.59
2023-03-15T23:53:57.894Z,22.60
2023-03-15T23:57:20.173Z,22.60
